BNU weather

Blumenau Airport
Blumenau, Santa Catarina, Brazil

Public forecast

Using degrees Celsius for public forecast. Weather courtesy of forecast.io.

Closest aviation weather report (METAR) to Blumenau Airport

Closest report is Ministro Victor Konder International Airport, 23.7 nm (43.9 km) E. Retrieved 2020/07/12 09:00 UTC (49 minutes ago):

SBNF 120900Z 28005KT 7000 FEW002 16/16 Q1011

Closest aviation forecast (TAF) to Blumenau Airport

Closest forecast is Ministro Victor Konder International Airport, 23.7 nm (43.9 km) E. Retrieved 2020/07/12 06:00 UTC (4 hours ago):

TAF SBNF 120300Z 1206/1306 26008KT 8000 SCT008 TX20/1216Z TN15/1305Z TEMPO 1208/1211 5000 BR BKN008 BECMG 1214/1216 9999 SCT018 RMK PEA